createdAt,value
2018-06-25T00:02:07.885Z,13.90
2018-06-25T00:04:36.272Z,13.90
2018-06-25T00:07:04.626Z,13.80
2018-06-25T00:09:32.932Z,13.90
2018-06-25T00:12:01.311Z,13.90
2018-06-25T00:14:29.640Z,13.90
2018-06-25T00:16:57.980Z,13.80
2018-06-25T00:19:26.303Z,13.80
2018-06-25T00:21:54.660Z,13.90
2018-06-25T00:24:22.992Z,13.80
2018-06-25T00:26:51.838Z,13.80
2018-06-25T00:29:20.169Z,13.80
2018-06-25T00:31:48.507Z,13.80
2018-06-25T00:34:16.889Z,13.80
2018-06-25T00:36:45.960Z,13.80
2018-06-25T00:39:14.291Z,13.70
2018-06-25T00:41:42.639Z,13.70
2018-06-25T00:44:12.089Z,13.70
2018-06-25T00:46:40.432Z,13.70
2018-06-25T00:49:09.746Z,13.70
2018-06-25T00:51:38.040Z,13.70
2018-06-25T00:54:06.404Z,13.70
2018-06-25T00:56:34.718Z,13.70
2018-06-25T00:59:14.195Z,13.70
2018-06-25T01:01:42.554Z,13.80
2018-06-25T01:04:10.812Z,13.90
2018-06-25T01:06:39.780Z,13.90
2018-06-25T01:09:10.696Z,13.90
2018-06-25T01:11:39.057Z,13.90
2018-06-25T01:14:07.484Z,13.90
2018-06-25T01:16:36.347Z,13.90
2018-06-25T01:19:04.699Z,13.90
2018-06-25T01:21:33.024Z,14.00
2018-06-25T01:24:01.700Z,13.90
2018-06-25T01:26:30.076Z,13.90
2018-06-25T01:28:58.420Z,14.00
2018-06-25T01:31:26.749Z,13.90
2018-06-25T01:33:55.132Z,13.90
2018-06-25T01:36:23.550Z,13.90
2018-06-25T01:38:51.896Z,13.90
2018-06-25T01:41:20.239Z,13.90
2018-06-25T01:43:48.611Z,13.90
2018-06-25T01:46:17.888Z,13.90
2018-06-25T01:48:46.231Z,13.80
2018-06-25T01:51:14.568Z,13.80
2018-06-25T01:53:42.921Z,13.90
2018-06-25T01:56:11.232Z,13.80
2018-06-25T01:58:39.559Z,13.80
2018-06-25T02:01:07.909Z,13.90
2018-06-25T02:03:36.580Z,13.90
2018-06-25T02:06:04.952Z,13.90
2018-06-25T02:08:33.263Z,13.90
2018-06-25T02:11:01.647Z,13.90
2018-06-25T02:13:29.987Z,13.90
2018-06-25T02:15:58.840Z,14.00
2018-06-25T02:18:27.160Z,13.90
2018-06-25T02:20:56.264Z,14.00
2018-06-25T02:23:24.573Z,14.00
2018-06-25T02:25:52.899Z,14.00
2018-06-25T02:28:21.212Z,13.90
2018-06-25T02:30:49.777Z,14.00
2018-06-25T02:33:18.117Z,14.00
2018-06-25T02:35:46.468Z,14.00
2018-06-25T02:38:14.787Z,14.00
2018-06-25T02:40:43.100Z,13.90
2018-06-25T02:43:11.396Z,13.90
2018-06-25T02:45:39.709Z,13.90
2018-06-25T02:48:08.056Z,13.90
2018-06-25T02:50:37.040Z,13.90
2018-06-25T02:53:05.677Z,13.90
2018-06-25T02:55:33.964Z,13.90
2018-06-25T02:58:02.303Z,14.00
2018-06-25T03:00:30.636Z,13.90
2018-06-25T03:02:58.955Z,13.90
2018-06-25T03:05:29.109Z,13.90
2018-06-25T03:07:57.540Z,13.80
2018-06-25T03:10:26.540Z,13.80
2018-06-25T03:12:54.863Z,13.80
2018-06-25T03:15:23.852Z,13.90
2018-06-25T03:17:52.199Z,13.80
2018-06-25T03:20:20.512Z,13.80
2018-06-25T03:22:48.853Z,13.90
2018-06-25T03:25:17.395Z,13.80
2018-06-25T03:27:45.754Z,13.80
2018-06-25T03:30:14.080Z,13.90
2018-06-25T03:32:43.054Z,13.80
2018-06-25T03:35:11.400Z,13.90
2018-06-25T03:37:39.741Z,13.80
2018-06-25T03:40:08.104Z,13.90
2018-06-25T03:42:37.332Z,13.90
2018-06-25T03:45:05.960Z,13.90
2018-06-25T03:47:34.266Z,13.80
2018-06-25T03:50:02.632Z,13.80
2018-06-25T03:52:31.391Z,13.80
2018-06-25T03:54:59.712Z,13.90
2018-06-25T03:57:28.668Z,13.90
2018-06-25T03:59:58.036Z,13.90
2018-06-25T04:02:26.339Z,13.90
2018-06-25T04:04:55.385Z,13.90
2018-06-25T04:07:26.097Z,13.90
2018-06-25T04:09:57.790Z,13.90
2018-06-25T04:12:27.861Z,13.90
2018-06-25T04:14:56.540Z,13.90
2018-06-25T04:17:25.410Z,14.00
2018-06-25T04:19:53.738Z,13.90
2018-06-25T04:22:22.104Z,14.00
2018-06-25T04:24:50.420Z,14.00
2018-06-25T04:27:18.756Z,14.10
2018-06-25T04:29:47.084Z,14.00
2018-06-25T04:32:15.405Z,14.10
2018-06-25T04:34:43.711Z,14.00
2018-06-25T04:37:12.392Z,14.10
2018-06-25T04:39:40.756Z,14.10
2018-06-25T04:42:09.087Z,14.10
2018-06-25T04:44:37.500Z,14.10
2018-06-25T04:47:05.860Z,14.10
2018-06-25T04:49:34.164Z,14.10
2018-06-25T04:52:02.476Z,14.10
2018-06-25T04:54:30.863Z,14.20
2018-06-25T04:56:59.173Z,14.20
2018-06-25T04:59:27.628Z,14.20
2018-06-25T05:01:56.173Z,14.10
2018-06-25T05:04:24.607Z,14.10
2018-06-25T05:06:52.914Z,14.10
2018-06-25T05:09:21.245Z,14.10
2018-06-25T05:11:49.548Z,14.00
2018-06-25T05:14:17.892Z,14.10
2018-06-25T05:16:46.200Z,14.00
2018-06-25T05:19:14.540Z,13.90
2018-06-25T05:21:42.851Z,13.90
2018-06-25T05:24:11.159Z,14.00
2018-06-25T05:26:39.515Z,14.00
2018-06-25T05:29:07.889Z,14.10
2018-06-25T05:31:36.163Z,14.10
2018-06-25T05:34:04.497Z,14.20
2018-06-25T05:36:32.816Z,14.20
2018-06-25T05:39:01.128Z,14.30
2018-06-25T05:41:29.447Z,14.30
2018-06-25T05:43:58.404Z,14.30
2018-06-25T05:46:26.724Z,14.30
2018-06-25T05:48:55.919Z,14.30
2018-06-25T05:51:24.232Z,14.40
2018-06-25T05:53:52.589Z,14.40
2018-06-25T05:56:20.920Z,14.40
2018-06-25T05:58:49.267Z,14.40
2018-06-25T06:01:17.757Z,14.30
2018-06-25T06:03:46.202Z,14.30
2018-06-25T06:06:14.560Z,14.50
2018-06-25T06:08:43.890Z,14.50
2018-06-25T06:11:12.211Z,14.50
2018-06-25T06:13:40.535Z,14.50
2018-06-25T06:16:08.844Z,14.60
2018-06-25T06:18:37.238Z,14.50
2018-06-25T06:21:05.714Z,14.40
2018-06-25T06:23:34.052Z,14.50
2018-06-25T06:26:02.448Z,14.60
2018-06-25T06:28:30.844Z,14.70
2018-06-25T06:30:59.196Z,14.90
2018-06-25T06:33:27.535Z,14.80
2018-06-25T06:35:55.840Z,14.90
2018-06-25T06:38:24.192Z,14.90
2018-06-25T06:40:52.500Z,15.10
2018-06-25T06:43:20.816Z,15.00
2018-06-25T06:45:49.160Z,15.10
2018-06-25T06:48:17.488Z,15.10
2018-06-25T06:50:45.837Z,15.10
2018-06-25T06:53:14.164Z,14.90
2018-06-25T06:55:42.611Z,14.80
2018-06-25T06:58:10.921Z,14.80
2018-06-25T07:00:39.244Z,14.80
2018-06-25T07:03:07.597Z,14.80
2018-06-25T07:05:35.933Z,14.90
2018-06-25T07:08:04.320Z,14.90
2018-06-25T07:10:32.756Z,15.00
2018-06-25T07:13:01.128Z,15.10
2018-06-25T07:15:29.466Z,15.10
2018-06-25T07:17:57.788Z,14.90
2018-06-25T07:20:27.497Z,14.90
2018-06-25T07:22:55.811Z,14.90
2018-06-25T07:25:24.192Z,14.90
2018-06-25T07:27:52.529Z,15.00
2018-06-25T07:30:22.620Z,15.20
2018-06-25T07:32:50.936Z,15.40
2018-06-25T07:35:19.296Z,15.50
2018-06-25T07:37:47.752Z,15.40
2018-06-25T07:40:16.074Z,15.60
2018-06-25T07:42:44.644Z,15.70
2018-06-25T07:45:12.965Z,15.70
2018-06-25T07:47:41.312Z,15.90
2018-06-25T07:50:09.668Z,16.00
2018-06-25T07:52:38.456Z,16.00
2018-06-25T07:55:06.780Z,16.10
2018-06-25T07:57:35.162Z,16.40
2018-06-25T08:00:03.689Z,16.50
2018-06-25T08:02:32.029Z,16.40
2018-06-25T08:05:00.868Z,16.20
2018-06-25T08:07:29.184Z,16.10
2018-06-25T08:09:57.544Z,16.20
2018-06-25T08:12:25.944Z,16.20
2018-06-25T08:14:54.276Z,16.20
2018-06-25T08:17:22.593Z,16.60
2018-06-25T08:19:50.933Z,16.30
2018-06-25T08:22:19.284Z,16.20
2018-06-25T08:24:47.636Z,16.20
2018-06-25T08:27:15.979Z,16.30
2018-06-25T08:29:44.344Z,16.50
2018-06-25T08:32:12.675Z,16.60
2018-06-25T08:34:41.017Z,16.80
2018-06-25T08:37:09.421Z,16.80
2018-06-25T08:39:37.627Z,17.00
2018-06-25T08:42:06.396Z,17.40
2018-06-25T08:44:35.389Z,17.30
2018-06-25T08:47:03.732Z,17.20
2018-06-25T08:49:32.048Z,17.30
2018-06-25T08:52:00.484Z,17.30
2018-06-25T08:54:28.732Z,17.40
2018-06-25T08:56:57.114Z,17.30
2018-06-25T08:59:25.396Z,17.30
2018-06-25T09:01:53.740Z,17.20
2018-06-25T09:04:22.059Z,17.10
2018-06-25T09:06:50.387Z,17.00
2018-06-25T09:09:18.869Z,16.80
2018-06-25T09:11:47.199Z,16.70
2018-06-25T09:14:16.505Z,16.50
2018-06-25T09:16:45.444Z,16.30
2018-06-25T09:19:13.775Z,16.20
2018-06-25T09:21:42.081Z,16.20
2018-06-25T09:24:10.456Z,16.30
2018-06-25T09:26:40.392Z,16.50
2018-06-25T09:29:09.817Z,16.80
2018-06-25T09:31:38.116Z,17.00
2018-06-25T09:34:10.663Z,16.90
2018-06-25T09:36:39.550Z,16.80
2018-06-25T09:39:09.368Z,16.80
2018-06-25T09:41:37.973Z,16.80
2018-06-25T09:44:06.096Z,16.80
2018-06-25T09:46:34.669Z,17.00
2018-06-25T09:49:02.996Z,17.00
2018-06-25T09:51:31.415Z,17.00
2018-06-25T09:54:00.355Z,17.10
2018-06-25T09:56:28.729Z,17.20
2018-06-25T09:58:57.804Z,17.40
2018-06-25T10:01:26.120Z,17.50
2018-06-25T10:03:54.436Z,17.60
2018-06-25T10:06:22.769Z,17.70
2018-06-25T10:08:51.097Z,17.70
2018-06-25T10:11:19.468Z,17.60
2018-06-25T10:13:47.804Z,17.60
2018-06-25T10:16:16.120Z,17.60
2018-06-25T10:18:44.495Z,17.70
2018-06-25T10:21:12.899Z,17.90
2018-06-25T10:23:41.204Z,18.10
2018-06-25T10:26:09.716Z,18.30
2018-06-25T10:28:38.404Z,18.30
2018-06-25T10:31:06.933Z,18.10
2018-06-25T10:33:35.283Z,18.00
2018-06-25T10:36:03.684Z,17.90
2018-06-25T10:38:32.020Z,17.90
2018-06-25T10:41:00.328Z,18.20
2018-06-25T10:43:28.669Z,18.40
2018-06-25T10:45:56.981Z,18.50
2018-06-25T10:48:25.300Z,18.60
2018-06-25T10:50:53.628Z,18.70
2018-06-25T10:53:21.943Z,18.70
2018-06-25T10:55:50.283Z,18.50
2018-06-25T10:58:18.819Z,18.60
2018-06-25T11:00:47.110Z,18.50
2018-06-25T11:03:15.425Z,18.30
2018-06-25T11:05:43.932Z,18.10
2018-06-25T11:08:13.152Z,18.10
2018-06-25T11:10:41.481Z,18.20
2018-06-25T11:13:10.732Z,18.30
2018-06-25T11:15:39.048Z,18.30
2018-06-25T11:18:07.366Z,18.30
2018-06-25T11:20:35.716Z,18.30
2018-06-25T11:23:04.050Z,18.30
2018-06-25T11:25:32.372Z,18.20
2018-06-25T11:28:00.692Z,18.20
2018-06-25T11:30:29.064Z,18.30
2018-06-25T11:32:57.376Z,18.30
2018-06-25T11:35:25.711Z,18.50
2018-06-25T11:37:54.103Z,18.60
2018-06-25T11:40:22.464Z,18.50
2018-06-25T11:42:50.800Z,18.50
2018-06-25T11:45:19.141Z,18.60
2018-06-25T11:47:47.468Z,18.60
2018-06-25T11:50:15.787Z,18.60
2018-06-25T11:52:44.130Z,18.60
2018-06-25T11:55:12.448Z,18.80
2018-06-25T11:57:40.767Z,18.70
2018-06-25T12:00:09.154Z,19.00
2018-06-25T12:02:37.670Z,19.20
2018-06-25T12:05:07.567Z,19.40
2018-06-25T12:07:35.926Z,19.60
2018-06-25T12:10:04.316Z,19.40
2018-06-25T12:12:32.734Z,19.20
2018-06-25T12:15:02.124Z,19.30
2018-06-25T12:17:30.567Z,19.10
2018-06-25T12:19:58.840Z,19.00
2018-06-25T12:22:27.184Z,19.00
2018-06-25T12:24:55.865Z,19.00
2018-06-25T12:27:24.280Z,19.00
2018-06-25T12:29:52.584Z,19.20
2018-06-25T12:32:20.940Z,19.30
2018-06-25T12:34:49.258Z,19.30
2018-06-25T12:37:17.608Z,19.30
2018-06-25T12:39:45.919Z,19.30
2018-06-25T12:42:14.246Z,19.30
2018-06-25T12:44:42.576Z,19.30
2018-06-25T12:47:10.920Z,19.30
2018-06-25T12:49:39.276Z,19.30
2018-06-25T12:52:07.619Z,19.40
2018-06-25T12:54:36.068Z,19.50
2018-06-25T12:57:04.418Z,19.60
2018-06-25T12:59:32.736Z,19.50
2018-06-25T13:02:01.040Z,19.40
2018-06-25T13:04:29.336Z,19.40
2018-06-25T13:06:57.684Z,19.50
2018-06-25T13:09:26.028Z,19.50
2018-06-25T13:11:54.355Z,19.90
2018-06-25T13:14:22.660Z,19.80
2018-06-25T13:16:51.175Z,19.70
2018-06-25T13:19:19.645Z,19.60
2018-06-25T13:21:47.964Z,19.50
2018-06-25T13:24:16.304Z,19.80
2018-06-25T13:26:44.640Z,20.30
2018-06-25T13:29:12.968Z,20.40
2018-06-25T13:31:41.383Z,20.60
2018-06-25T13:34:09.708Z,20.40
2018-06-25T13:36:38.052Z,20.20
2018-06-25T13:39:07.751Z,20.30
2018-06-25T13:41:36.223Z,20.40
2018-06-25T13:44:04.600Z,20.70
2018-06-25T13:46:32.948Z,20.70
2018-06-25T13:49:01.372Z,20.50
2018-06-25T13:51:29.750Z,20.60
2018-06-25T13:53:58.228Z,20.80
2018-06-25T13:56:26.680Z,21.30
2018-06-25T13:58:55.628Z,21.50
2018-06-25T14:01:23.946Z,21.30
2018-06-25T14:03:52.327Z,21.60
2018-06-25T14:06:20.628Z,22.30
2018-06-25T14:08:48.957Z,22.60
2018-06-25T14:11:17.300Z,23.60
2018-06-25T14:13:45.631Z,24.60
2018-06-25T14:16:14.119Z,24.20
2018-06-25T14:18:42.475Z,24.40
2018-06-25T14:21:10.825Z,24.10
2018-06-25T14:23:43.416Z,24.40
2018-06-25T14:26:15.462Z,25.10
2018-06-25T14:28:43.815Z,25.30
2018-06-25T14:31:17.576Z,25.20
2018-06-25T14:33:51.221Z,24.60
2018-06-25T14:36:19.576Z,24.50
2018-06-25T14:38:47.952Z,24.20
2018-06-25T14:41:16.291Z,24.50
2018-06-25T14:43:44.641Z,25.40
2018-06-25T14:46:13.034Z,25.20
2018-06-25T14:48:41.396Z,24.70
2018-06-25T14:51:09.688Z,25.60
2018-06-25T14:53:38.059Z,26.40
2018-06-25T14:56:06.376Z,26.40
2018-06-25T14:58:34.757Z,25.60
2018-06-25T15:01:03.073Z,24.70
2018-06-25T15:03:31.396Z,23.60
2018-06-25T15:05:59.751Z,23.40
2018-06-25T15:08:28.089Z,23.10
2018-06-25T15:10:56.419Z,22.80
2018-06-25T15:13:24.720Z,22.70
2018-06-25T15:15:53.063Z,22.40
2018-06-25T15:18:21.388Z,22.70
2018-06-25T15:20:49.712Z,23.70
2018-06-25T15:23:18.056Z,24.30
2018-06-25T15:25:46.425Z,24.60
2018-06-25T15:28:14.775Z,25.00
2018-06-25T15:30:43.118Z,25.70
2018-06-25T15:33:11.440Z,26.20
2018-06-25T15:35:39.750Z,25.90
2018-06-25T15:38:08.128Z,25.10
2018-06-25T15:40:36.372Z,24.40
2018-06-25T15:43:04.817Z,24.00
2018-06-25T15:45:33.241Z,23.40
2018-06-25T15:48:01.620Z,22.80
2018-06-25T15:50:29.922Z,22.70
2018-06-25T15:52:58.266Z,22.80
2018-06-25T15:55:26.596Z,23.70
2018-06-25T15:57:54.947Z,24.20
2018-06-25T16:00:23.348Z,24.50
2018-06-25T16:02:51.691Z,24.70
2018-06-25T16:05:20.029Z,24.60
2018-06-25T16:07:48.396Z,24.20
2018-06-25T16:10:16.816Z,23.60
2018-06-25T16:12:45.128Z,23.30
2018-06-25T16:15:13.496Z,23.10
2018-06-25T16:17:41.823Z,22.80
2018-06-25T16:20:10.156Z,22.80
2018-06-25T16:22:38.515Z,22.70
2018-06-25T16:25:07.172Z,22.60
2018-06-25T16:27:35.519Z,22.40
2018-06-25T16:30:04.132Z,22.50
2018-06-25T16:32:33.738Z,22.40
2018-06-25T16:35:02.386Z,22.40
2018-06-25T16:37:30.809Z,23.00
2018-06-25T16:39:59.133Z,24.30
2018-06-25T16:42:27.548Z,24.90
2018-06-25T16:44:56.090Z,25.40
2018-06-25T16:47:24.437Z,25.60
2018-06-25T16:49:52.872Z,25.50
2018-06-25T16:52:21.213Z,25.10
2018-06-25T16:54:49.541Z,25.80
2018-06-25T16:57:17.917Z,26.60
2018-06-25T16:59:46.310Z,27.10
2018-06-25T17:02:14.599Z,27.10
2018-06-25T17:04:42.919Z,26.90
2018-06-25T17:07:11.232Z,25.80
2018-06-25T17:09:39.545Z,25.30
2018-06-25T17:12:07.863Z,25.10
2018-06-25T17:14:36.187Z,24.70
2018-06-25T17:17:04.520Z,24.10
2018-06-25T17:19:32.854Z,24.00
2018-06-25T17:22:01.211Z,24.10
2018-06-25T17:24:30.295Z,23.80
2018-06-25T17:26:58.648Z,23.30
2018-06-25T17:29:32.257Z,23.30
2018-06-25T17:32:00.637Z,23.40
2018-06-25T17:34:28.932Z,23.70
2018-06-25T17:36:57.893Z,24.00
2018-06-25T17:39:26.307Z,24.40
2018-06-25T17:41:54.715Z,24.80
2018-06-25T17:44:23.027Z,24.70
2018-06-25T17:46:51.361Z,24.70
2018-06-25T17:49:19.692Z,24.70
2018-06-25T17:51:48.028Z,24.50
2018-06-25T17:54:16.368Z,24.40
2018-06-25T17:56:44.791Z,24.40
2018-06-25T17:59:13.212Z,24.20
2018-06-25T18:01:41.592Z,24.30
2018-06-25T18:04:10.493Z,24.20
2018-06-25T18:06:38.824Z,24.40
2018-06-25T18:09:08.781Z,24.50
2018-06-25T18:11:37.213Z,24.50
2018-06-25T18:14:06.605Z,24.60
2018-06-25T18:16:35.000Z,24.40
2018-06-25T18:19:03.642Z,24.30
2018-06-25T18:21:31.947Z,24.30
2018-06-25T18:24:00.292Z,24.40
2018-06-25T18:26:28.787Z,24.20
2018-06-25T18:28:57.143Z,23.90
2018-06-25T18:31:25.532Z,23.70
2018-06-25T18:33:53.849Z,23.60
2018-06-25T18:36:22.640Z,23.50
2018-06-25T18:38:50.989Z,23.30
2018-06-25T18:41:19.472Z,23.30
2018-06-25T18:43:47.944Z,23.20
2018-06-25T18:48:45.025Z,23.10
2018-06-25T18:51:13.525Z,23.00
2018-06-25T18:53:41.839Z,22.80
2018-06-25T18:56:10.200Z,22.60
2018-06-25T18:58:38.544Z,22.40
2018-06-25T19:01:08.188Z,22.30
2018-06-25T19:03:36.608Z,22.20
2018-06-25T19:06:05.117Z,22.10
2018-06-25T19:08:33.544Z,22.00
2018-06-25T19:11:02.016Z,21.90
2018-06-25T19:13:30.332Z,21.80
2018-06-25T19:15:59.368Z,21.60
2018-06-25T19:18:27.920Z,21.50
2018-06-25T19:20:56.977Z,21.20
2018-06-25T19:23:25.280Z,21.00
2018-06-25T19:25:53.617Z,20.90
2018-06-25T19:28:21.927Z,20.70
2018-06-25T19:30:50.280Z,20.60
2018-06-25T19:33:18.596Z,20.50
2018-06-25T19:35:46.964Z,20.40
2018-06-25T19:38:15.271Z,20.50
2018-06-25T19:40:43.662Z,20.30
2018-06-25T19:43:11.966Z,20.30
2018-06-25T19:45:40.281Z,20.30
2018-06-25T19:48:08.656Z,20.20
2018-06-25T19:50:36.997Z,20.10
2018-06-25T19:53:05.327Z,19.90
2018-06-25T19:55:33.682Z,19.70
2018-06-25T19:58:02.262Z,19.50
2018-06-25T20:00:30.627Z,19.20
2018-06-25T20:02:58.932Z,19.10
2018-06-25T20:05:27.247Z,19.00
2018-06-25T20:07:55.957Z,19.00
2018-06-25T20:10:24.404Z,18.90
2018-06-25T20:12:52.792Z,18.90
2018-06-25T20:15:21.210Z,19.00
2018-06-25T20:17:49.634Z,19.00
2018-06-25T20:20:17.946Z,19.00
2018-06-25T20:22:46.292Z,19.10
2018-06-25T20:25:14.657Z,19.00
2018-06-25T20:27:43.156Z,19.00
2018-06-25T20:30:11.637Z,19.00
2018-06-25T20:32:40.009Z,18.80
2018-06-25T20:35:09.008Z,18.70
2018-06-25T20:37:37.352Z,18.50
2018-06-25T20:40:05.696Z,18.30
2018-06-25T20:42:34.028Z,18.10
2018-06-25T20:45:02.812Z,18.00
2018-06-25T20:47:31.156Z,17.90
2018-06-25T20:49:59.457Z,17.80
2018-06-25T20:52:27.792Z,17.80
2018-06-25T20:54:57.540Z,17.80
2018-06-25T20:57:25.847Z,17.90
2018-06-25T20:59:54.151Z,18.00
2018-06-25T21:02:22.500Z,18.00
2018-06-25T21:04:50.811Z,18.00
2018-06-25T21:07:19.114Z,18.00
2018-06-25T21:09:47.464Z,18.00
2018-06-25T21:12:15.767Z,18.00
2018-06-25T21:14:44.120Z,17.90
2018-06-25T21:17:12.448Z,17.80
2018-06-25T21:19:40.865Z,17.60
2018-06-25T21:22:09.188Z,17.40
2018-06-25T21:24:37.511Z,17.30
2018-06-25T21:27:05.908Z,17.20
2018-06-25T21:29:34.204Z,17.10
2018-06-25T21:32:02.826Z,17.00
2018-06-25T21:34:31.152Z,16.70
2018-06-25T21:36:59.524Z,16.30
2018-06-25T21:39:27.845Z,16.10
2018-06-25T21:41:56.147Z,16.00
2018-06-25T21:44:24.496Z,15.90
2018-06-25T21:46:52.922Z,15.90
2018-06-25T21:49:21.660Z,16.00
2018-06-25T21:51:49.963Z,16.00
2018-06-25T21:54:18.304Z,15.90
2018-06-25T21:56:46.617Z,15.80
2018-06-25T21:59:14.939Z,15.60
2018-06-25T22:01:43.328Z,15.40
2018-06-25T22:04:11.632Z,15.40
2018-06-25T22:06:39.972Z,15.30
2018-06-25T22:09:09.076Z,15.40
2018-06-25T22:11:37.393Z,15.40
2018-06-25T22:14:05.756Z,15.30
2018-06-25T22:16:34.120Z,15.40
2018-06-25T22:19:02.452Z,15.50
2018-06-25T22:21:30.773Z,15.60
2018-06-25T22:23:59.153Z,15.50
2018-06-25T22:26:27.473Z,15.30
2018-06-25T22:28:55.791Z,15.10
2018-06-25T22:31:24.797Z,15.00
2018-06-25T22:33:53.820Z,14.90
2018-06-25T22:36:22.872Z,14.80
2018-06-25T22:38:51.172Z,15.00
2018-06-25T22:41:19.544Z,15.20
2018-06-25T22:43:47.879Z,15.30
2018-06-25T22:46:16.267Z,15.30
2018-06-25T22:48:44.663Z,15.30
2018-06-25T22:51:13.004Z,15.20
2018-06-25T22:53:41.347Z,15.20
2018-06-25T22:56:09.656Z,15.10
2018-06-25T22:58:37.952Z,15.10
2018-06-25T23:01:06.352Z,15.00
2018-06-25T23:03:34.695Z,15.00
2018-06-25T23:06:02.956Z,15.00
2018-06-25T23:08:31.268Z,15.00
2018-06-25T23:10:59.580Z,15.00
2018-06-25T23:13:27.888Z,15.00
2018-06-25T23:15:56.213Z,14.90
2018-06-25T23:18:24.520Z,14.70
2018-06-25T23:20:52.823Z,14.60
2018-06-25T23:23:21.130Z,14.60
2018-06-25T23:25:50.108Z,14.60
2018-06-25T23:28:19.434Z,14.60
2018-06-25T23:30:48.271Z,14.60
2018-06-25T23:33:16.656Z,14.70
2018-06-25T23:35:44.964Z,14.70
2018-06-25T23:38:13.285Z,14.70
2018-06-25T23:40:41.617Z,14.60
2018-06-25T23:43:09.945Z,14.60
2018-06-25T23:45:38.255Z,14.60
2018-06-25T23:48:06.584Z,14.60
2018-06-25T23:50:34.912Z,14.60
2018-06-25T23:53:03.236Z,14.60
2018-06-25T23:55:31.620Z,14.50
2018-06-25T23:57:59.961Z,14.50
